M I D A S
Marine Information and Data Acquisition System
Tripno 148 of the Zeeleeuw from 2001-08-13 06:59:03 to 2001-08-13 17:40:00
Back to CruiseResearch ActivitiesStationsMapUnderway DataData graphs

EquipmentUnitsComment
TimeDGPSUTC
LatitudeDGPSDM.mWGS84
LongitudeDGPSDM.mWGS84
TemperatureSBE03/SBE38deg celciusITS90
ConductivitySBE21S/mITS90
SalinitySBE21 Practical Salinity Units
ChlorophylAChelsea fluorimeterg/lCalibrated in Aceton
Missing or incorrect values are displayed as -999
Sea surface data collected by the RV Zeeleeuw from 2001-08-13 06:59:03 to 2001-08-13 17:40:00
Time Latitude Longitude Temperature Conductivity Salinity ChlorophylA
2001-08-13 07:00:10 51°13.677 2°55.924 -999 -999 -999  
2001-08-13 07:01:10 51°13.676 2°55.924 -999 -999 -999  
2001-08-13 07:02:30 51°13.677 2°55.924 -999 -999 -999  
2001-08-13 07:03:30 51°13.677 2°55.923 -999 -999 -999  
2001-08-13 07:04:30 51°13.677 2°55.923 -999 -999 -999  
2001-08-13 07:05:30 51°13.677 2°55.922 -999 -999 -999  
2001-08-13 07:06:30 51°13.676 2°55.923 -999 -999 -999  
2001-08-13 07:07:30 51°13.676 2°55.923 -999 -999 -999  
2001-08-13 07:08:30 51°13.676 2°55.923 -999 -999 -999  
2001-08-13 07:09:30 51°13.676 2°55.923 -999 -999 -999  
2001-08-13 07:10:26 51°13.676 2°55.923 -999 -999 -999  
2001-08-13 07:11:25 51°13.677 2°55.923 -999 -999 -999  
2001-08-13 07:12:36 51°13.677 2°55.923 -999 -999 -999  
2001-08-13 07:14:48 51°13.677 2°55.923 20.858468 0.055422 39.811523  
2001-08-13 07:15:48 51°13.677 2°55.923 20.858947 0.055422 39.812166  
2001-08-13 07:16:48 51°13.676 2°55.923 20.860666 0.055422 39.813453  
2001-08-13 07:17:48 51°13.676 2°55.922 -999 0.055422 39.813453  
2001-08-13 07:18:48 51°13.677 2°55.922 -999 0.055422 39.814741  
2001-08-13 07:19:48 51°13.677 2°55.923 -999 0.055422 39.816028  
2001-08-13 07:20:48 51°13.677 2°55.923 49.027263 0.055422 39.816028  
2001-08-13 07:21:48 51°13.677 2°55.923 45.990058 0.055422 39.816672  
2001-08-13 07:22:48 51°13.676 2°55.923 48.975549 0.055422 39.804446  
2001-08-13 07:23:46 51°13.676 2°55.923 48.311384 0.055422 39.802516  
2001-08-13 07:24:47 51°13.676 2°55.923 47.154521 0.055422 39.806376  
2001-08-13 07:25:48 51°13.677 2°55.923 43.083308 0.055422 39.804446  
2001-08-13 07:26:48 51°13.677 2°55.922 45.411044 0.055422 39.805732  
2001-08-13 07:27:46 51°13.677 2°55.923 43.725827 0.055422 39.806376  
2001-08-13 07:28:46 51°13.677 2°55.923 44.911295 0.055422 39.806376  
2001-08-13 07:29:47 51°13.677 2°55.922 44.191552 0.055422 39.806376  
2001-08-13 07:30:46 51°13.677 2°55.923 33.536267 0.055422 39.807019  
2001-08-13 07:31:46 51°13.677 2°55.924 42.512053 0.055422 39.807662  
2001-08-13 07:32:48 51°13.676 2°55.923 45.568868 0.055422 39.807662  
2001-08-13 07:33:46 51°13.677 2°55.925 44.831307 0.055422 39.808306  
2001-08-13 07:34:46 51°13.677 2°55.925 34.513138 0.055422 39.808949  
2001-08-13 07:35:46 51°13.677 2°55.924 44.053058 0.055422 39.810236  
2001-08-13 07:36:46 51°13.677 2°55.924 40.655415 0.055422 39.809592  
2001-08-13 07:37:47 51°13.677 2°55.925 42.221727 0.055422 39.810236  
2001-08-13 07:38:47 51°13.676 2°55.925 42.098127 0.055422 39.810236  
2001-08-13 07:39:48 51°13.674 2°55.925 41.167552 0.055422 39.810236  
2001-08-13 07:40:48 51°13.674 2°55.923 41.185347 0.055422 39.810879  
2001-08-13 07:41:48 51°13.677 2°55.907 42.311103 0.055422 39.811523  
2001-08-13 07:42:46 51°13.683 2°55.852 38.502289 0.055422 39.811523  
2001-08-13 07:43:48 51°13.679 2°55.776 39.032685 0.055422 39.811523  
2001-08-13 07:44:48 51°13.682 2°55.751 38.763821 0.055422 39.811523  
2001-08-13 07:45:46 51°13.754 2°55.716 39.581902 0.055422 39.810879  
2001-08-13 07:46:48 51°13.848 2°55.63 39.820148 0.055422 39.813453  
2001-08-13 07:47:48 51°13.951 2°55.554 41.060921 0.055422 39.81281  
2001-08-13 07:48:48 51°14.059 2°55.478 41.862493 0.055422 39.813453  
2001-08-13 07:49:48 51°14.164 2°55.397 40.251983 0.055422 39.812166  
2001-08-13 07:50:48 51°14.254 2°55.284 39.687982 0.055422 39.813453  
2001-08-13 07:51:48 51°14.328 2°55.151 35.267224 0.055422 39.814097  
2001-08-13 07:52:47 51°14.404 2°55.02 39.555321 0.055422 39.814097  
2001-08-13 07:53:47 51°14.505 2°54.889 38.937927 0.055422 39.815384  
2001-08-13 07:55:28 51°14.673 2°54.766 -999 -999 -999  
2001-08-13 07:56:28 51°14.721 2°54.74 -999 -999 -999  
2001-08-13 07:57:28 51°14.779 2°54.687 -999 -999 -999  
2001-08-13 07:58:28 51°14.883 2°54.591 -999 -999 -999  
2001-08-13 07:59:28 51°15.024 2°54.462 -999 -999 -999  
2001-08-13 08:00:28 51°15.194 2°54.298 -999 -999 -999  
2001-08-13 08:01:28 51°15.367 2°54.124 -999 -999 -999  
2001-08-13 08:02:28 51°15.537 2°53.94 -999 -999 -999  
2001-08-13 08:03:28 51°15.719 2°53.759 -999 -999 -999  
2001-08-13 08:04:28 51°15.908 2°53.608 -999 -999 -999  
2001-08-13 08:05:28 51°16.067 2°53.465 -999 -999 -999  
2001-08-13 08:06:28 51°16.244 2°53.291 -999 -999 -999  
2001-08-13 08:07:29 51°16.433 2°53.105 -999 -999 -999  
2001-08-13 08:08:28 51°16.617 2°52.929 -999 -999 -999  
2001-08-13 08:09:28 51°16.809 2°52.756 -999 -999 -999  
2001-08-13 08:10:28 51°17.013 2°52.611 -999 -999 -999  
2001-08-13 08:11:28 51°17.208 2°52.44 -999 -999 -999  
2001-08-13 08:12:28 51°17.402 2°52.266 -999 -999 -999  
2001-08-13 08:13:28 51°17.591 2°52.074 -999 -999 -999  
2001-08-13 08:14:28 51°17.751 2°51.833 -999 -999 -999  
2001-08-13 08:15:28 51°17.895 2°51.582 -999 -999 -999  
2001-08-13 08:16:28 51°18.045 2°51.335 -999 -999 -999  
2001-08-13 08:17:28 51°18.175 2°51.066 -999 -999 -999  
2001-08-13 08:18:28 51°18.294 2°50.784 -999 -999 -999  
2001-08-13 08:19:28 51°18.403 2°50.502 -999 -999 -999  
2001-08-13 08:20:28 51°18.52 2°50.224 -999 -999 -999  
2001-08-13 08:21:28 51°18.583 2°49.908 -999 -999 -999  
2001-08-13 08:22:28 51°18.648 2°49.596 -999 -999 -999  
2001-08-13 08:23:30 51°18.712 2°49.27 -999 -999 -999  
2001-08-13 08:24:30 51°18.784 2°48.953 -999 -999 -999  
2001-08-13 08:25:28 51°18.861 2°48.653 -999 -999 -999  
2001-08-13 08:26:28 51°18.945 2°48.343 -999 -999 -999  
2001-08-13 08:27:28 51°19.008 2°48.025 -999 -999 -999  
2001-08-13 08:28:28 51°19.074 2°47.711 -999 -999 -999  
2001-08-13 08:29:28 51°19.14 2°47.403 -999 -999 -999  
2001-08-13 08:30:29 51°19.226 2°47.099 -999 -999 -999  
2001-08-13 08:31:28 51°19.284 2°46.791 -999 -999 -999  
2001-08-13 08:32:28 51°19.359 2°46.482 -999 -999 -999  
2001-08-13 08:33:28 51°19.412 2°46.165 -999 -999 -999  
2001-08-13 08:34:28 51°19.492 2°45.868 -999 -999 -999  
2001-08-13 08:35:28 51°19.574 2°45.565 -999 -999 -999  
2001-08-13 08:36:28 51°19.65 2°45.253 -999 -999 -999  
2001-08-13 08:37:30 51°19.725 2°44.932 -999 -999 -999  
2001-08-13 08:38:28 51°19.791 2°44.642 -999 -999 -999  
2001-08-13 08:39:28 51°19.861 2°44.339 -999 -999 -999  
2001-08-13 08:40:28 51°19.91 2°44.018 -999 -999 -999  
2001-08-13 08:41:28 51°19.962 2°43.705 -999 -999 -999  
2001-08-13 08:42:28 51°19.995 2°43.386 -999 -999 -999  
2001-08-13 08:43:30 51°20.05 2°43.052 -999 -999 -999  
2001-08-13 08:44:28 51°20.106 2°42.749 -999 -999 -999  
2001-08-13 08:45:28 51°20.157 2°42.43 -999 -999 -999  
2001-08-13 08:46:28 51°20.187 2°42.102 -999 -999 -999  
2001-08-13 08:47:28 51°20.243 2°41.786 -999 -999 -999  
2001-08-13 08:48:28 51°20.275 2°41.462 -999 -999 -999  
2001-08-13 08:49:28 51°20.298 2°41.138 -999 -999 -999  
2001-08-13 08:50:28 51°20.347 2°40.815 -999 -999 -999  
2001-08-13 08:51:28 51°20.348 2°40.491 -999 -999 -999  
2001-08-13 08:52:30 51°20.323 2°40.163 -999 -999 -999  
2001-08-13 08:53:28 51°20.358 2°39.859 -999 -999 -999  
2001-08-13 08:54:28 51°20.385 2°39.53 -999 -999 -999  
2001-08-13 08:55:29 51°20.409 2°39.195 -999 -999 -999  
2001-08-13 08:56:30 51°20.438 2°38.866 -999 -999 -999  
2001-08-13 08:57:28 51°20.478 2°38.557 -999 -999 -999  
2001-08-13 08:58:28 51°20.511 2°38.232 -999 -999 -999  
2001-08-13 08:59:28 51°20.522 2°37.909 -999 -999 -999  
2001-08-13 09:00:28 51°20.603 2°37.601 -999 -999 -999  
2001-08-13 09:01:29 51°20.702 2°37.295 -999 -999 -999  
2001-08-13 09:02:28 51°20.81 2°37.016 -999 -999 -999  
2001-08-13 09:03:28 51°20.941 2°36.746 -999 -999 -999  
2001-08-13 09:04:28 51°21.09 2°36.5 -999 -999 -999  
2001-08-13 09:05:28 51°21.284 2°36.333 -999 -999 -999  
2001-08-13 09:06:28 51°21.489 2°36.179 -999 -999 -999  
2001-08-13 09:07:28 51°21.698 2°36.044 -999 -999 -999  
2001-08-13 09:08:28 51°21.922 2°35.963 -999 -999 -999  
2001-08-13 09:09:29 51°22.156 2°35.892 -999 -999 -999  
2001-08-13 09:10:29 51°22.366 2°35.765 -999 -999 -999  
2001-08-13 09:11:28 51°22.58 2°35.649 -999 -999 -999  
2001-08-13 09:12:28 51°22.786 2°35.496 -999 -999 -999  
2001-08-13 09:13:28 51°22.99 2°35.341 -999 -999 -999  
2001-08-13 09:14:28 51°23.192 2°35.177 -999 -999 -999  
2001-08-13 09:15:28 51°23.37 2°34.966 -999 -999 -999  
2001-08-13 09:16:28 51°23.53 2°34.726 -999 -999 -999  
2001-08-13 09:17:28 51°23.657 2°34.447 -999 -999 -999  
2001-08-13 09:18:28 51°23.775 2°34.16 -999 -999 -999  
2001-08-13 09:19:29 51°23.892 2°33.866 -999 -999 -999  
2001-08-13 09:20:28 51°24.06 2°33.652 -999 -999 -999  
2001-08-13 09:21:29 51°24.279 2°33.551 -999 -999 -999  
2001-08-13 09:22:28 51°24.504 2°33.507 -999 -999 -999  
2001-08-13 09:23:28 51°24.731 2°33.542 -999 -999 -999  
2001-08-13 09:24:28 51°24.953 2°33.637 -999 -999 -999  
2001-08-13 09:25:28 51°25.182 2°33.674 -999 -999 -999  
2001-08-13 09:26:29 51°25.41 2°33.736 -999 -999 -999  
2001-08-13 09:27:28 51°25.632 2°33.818 -999 -999 -999  
2001-08-13 09:28:29 51°25.865 2°33.892 -999 -999 -999  
2001-08-13 09:29:28 51°26.09 2°33.951 -999 -999 -999  
2001-08-13 09:30:28 51°26.313 2°34.051 -999 -999 -999  
2001-08-13 09:31:28 51°26.533 2°34.149 -999 -999 -999  
2001-08-13 09:32:28 51°26.76 2°34.211 -999 -999 -999  
2001-08-13 09:33:28 51°26.989 2°34.301 -999 -999 -999  
2001-08-13 09:34:29 51°27.217 2°34.407 -999 -999 -999  
2001-08-13 09:35:28 51°27.441 2°34.498 -999 -999 -999  
2001-08-13 09:36:28 51°27.669 2°34.591 -999 -999 -999  
2001-08-13 09:37:28 51°27.893 2°34.707 -999 -999 -999  
2001-08-13 09:38:29 51°28.128 2°34.789 -999 -999 -999  
2001-08-13 09:39:29 51°28.346 2°34.912 -999 -999 -999  
2001-08-13 09:40:28 51°28.568 2°35.013 -999 -999 -999  
2001-08-13 09:41:28 51°28.796 2°34.98 -999 -999 -999  
2001-08-13 09:42:28 51°29.03 2°35.013 -999 -999 -999  
2001-08-13 09:43:28 51°29.257 2°35.082 -999 -999 -999  
2001-08-13 09:44:28 51°29.48 2°35.186 -999 -999 -999  
2001-08-13 09:45:29 51°29.707 2°35.29 -999 -999 -999  
2001-08-13 09:46:28 51°29.925 2°35.42 -999 -999 -999  
2001-08-13 09:47:28 51°30.151 2°35.511 -999 -999 -999  
2001-08-13 09:48:29 51°30.376 2°35.638 -999 -999 -999  
2001-08-13 09:49:30 51°30.597 2°35.77 -999 -999 -999  
2001-08-13 09:50:28 51°30.809 2°35.902 -999 -999 -999  
2001-08-13 09:51:29 51°31.038 2°35.994 -999 -999 -999  
2001-08-13 09:52:28 51°31.261 2°36.095 -999 -999 -999  
2001-08-13 09:53:28 51°31.482 2°36.207 -999 -999 -999  
2001-08-13 09:54:28 51°31.705 2°36.321 -999 -999 -999  
2001-08-13 09:55:28 51°31.925 2°36.436 -999 -999 -999  
2001-08-13 09:56:28 51°32.152 2°36.504 -999 -999 -999  
2001-08-13 09:57:28 51°32.382 2°36.571 -999 -999 -999  
2001-08-13 09:58:28 51°32.612 2°36.652 -999 -999 -999  
2001-08-13 09:59:28 51°32.842 2°36.736 -999 -999 -999  
2001-08-13 10:00:28 51°33.064 2°36.844 -999 -999 -999  
2001-08-13 10:01:28 51°33.291 2°36.903 -999 -999 -999  
2001-08-13 10:02:28 51°33.519 2°36.938 -999 -999 -999  
2001-08-13 10:03:28 51°33.749 2°37.024 -999 -999 -999  
2001-08-13 10:04:28 51°33.976 2°37.12 -999 -999 -999  
2001-08-13 10:05:30 51°34.218 2°37.144 -999 -999 -999  
2001-08-13 10:06:28 51°34.443 2°37.166 -999 -999 -999  
2001-08-13 10:07:28 51°34.676 2°37.206 -999 -999 -999  
2001-08-13 10:08:28 51°34.906 2°37.23 -999 -999 -999  
2001-08-13 10:09:28 51°35.135 2°37.282 -999 -999 -999  
2001-08-13 10:10:28 51°35.364 2°37.324 -999 -999 -999  
2001-08-13 10:11:28 51°35.594 2°37.352 -999 -999 -999  
2001-08-13 10:12:28 51°35.822 2°37.386 -999 -999 -999  
2001-08-13 10:13:28 51°36.05 2°37.429 -999 -999 -999  
2001-08-13 10:14:28 51°36.277 2°37.485 -999 -999 -999  
2001-08-13 10:15:28 51°36.506 2°37.509 -999 -999 -999  
2001-08-13 10:16:28 51°36.735 2°37.545 -999 -999 -999  
2001-08-13 10:17:28 51°36.966 2°37.559 -999 -999 -999  
2001-08-13 10:18:28 51°37.193 2°37.628 -999 -999 -999  
2001-08-13 10:19:28 51°37.417 2°37.705 -999 -999 -999  
2001-08-13 10:20:30 51°37.652 2°37.746 -999 -999 -999  
2001-08-13 10:21:28 51°37.874 2°37.803 -999 -999 -999  
2001-08-13 10:22:28 51°38.103 2°37.852 -999 -999 -999  
2001-08-13 10:23:28 51°38.329 2°37.894 -999 -999 -999  
2001-08-13 10:24:28 51°38.559 2°37.914 -999 -999 -999  
2001-08-13 10:25:30 51°38.796 2°37.95 -999 -999 -999  
2001-08-13 10:26:30 51°39.027 2°38 -999 -999 -999  
2001-08-13 10:27:28 51°39.249 2°38.041 -999 -999 -999  
2001-08-13 10:28:29 51°39.48 2°38.102 -999 -999 -999  
2001-08-13 10:29:30 51°39.71 2°38.155 -999 -999 -999  
2001-08-13 10:30:30 51°39.935 2°38.231 -999 -999 -999  
2001-08-13 10:31:28 51°40.153 2°38.296 -999 -999 -999  
2001-08-13 10:32:28 51°40.381 2°38.355 -999 -999 -999  
2001-08-13 10:33:30 51°40.615 2°38.414 -999 -999 -999  
2001-08-13 10:34:28 51°40.839 2°38.454 -999 -999 -999  
2001-08-13 10:35:28 51°41.072 2°38.491 -999 -999 -999  
2001-08-13 10:36:30 51°41.311 2°38.531 -999 -999 -999  
2001-08-13 10:37:30 51°41.54 2°38.589 -999 -999 -999  
2001-08-13 10:38:30 51°41.773 2°38.634 -999 -999 -999  
2001-08-13 10:39:28 51°41.996 2°38.694 -999 -999 -999  
2001-08-13 10:40:30 51°42.233 2°38.744 -999 -999 -999  
2001-08-13 10:41:30 51°42.464 2°38.804 -999 -999 -999  
2001-08-13 10:42:28 51°42.682 2°38.862 -999 -999 -999  
2001-08-13 10:43:28 51°42.907 2°38.913 -999 -999 -999  
2001-08-13 10:44:30 51°43.141 2°38.984 -999 -999 -999  
2001-08-13 10:45:30 51°43.367 2°39.051 -999 -999 -999  
2001-08-13 10:46:30 51°43.59 2°39.125 -999 -999 -999  
2001-08-13 10:47:30 51°43.795 2°39.182 -999 -999 -999  
2001-08-13 10:48:28 51°43.894 2°39.14 -999 -999 -999  
2001-08-13 10:49:28 51°43.916 2°39.04 -999 -999 -999  
2001-08-13 10:50:28 51°43.878 2°38.993 -999 -999 -999  
2001-08-13 10:51:28 51°43.829 2°39.009 -999 -999 -999  
2001-08-13 10:52:28 51°43.806 2°39.021 -999 -999 -999  
2001-08-13 10:53:30 51°43.783 2°39.028 -999 -999 -999  
2001-08-13 10:54:28 51°43.738 2°39.008 -999 -999 -999  
2001-08-13 10:55:30 51°43.707 2°39.009 -999 -999 -999  
2001-08-13 10:56:30 51°43.704 2°39.019 -999 -999 -999  
2001-08-13 10:57:28 51°43.715 2°39.037 -999 -999 -999  
2001-08-13 10:58:30 51°43.726 2°39.056 -999 -999 -999  
2001-08-13 10:59:28 51°43.732 2°39.076 -999 -999 -999  
2001-08-13 11:00:28 51°43.736 2°39.098 -999 -999 -999  
2001-08-13 11:01:28 51°43.729 2°39.122 -999 -999 -999  
2001-08-13 11:02:30 51°43.691 2°39.176 -999 -999 -999  
2001-08-13 11:03:28 51°43.649 2°39.262 -999 -999 -999  
2001-08-13 11:04:28 51°43.608 2°39.373 -999 -999 -999  
2001-08-13 11:05:30 51°43.557 2°39.486 -999 -999 -999  
2001-08-13 11:06:28 51°43.467 2°39.674 -999 -999 -999  
2001-08-13 11:07:29 51°43.36 2°39.919 -999 -999 -999  
2001-08-13 11:08:28 51°43.263 2°40.142 -999 -999 -999  
2001-08-13 11:09:30 51°43.197 2°40.204 -999 -999 -999  
2001-08-13 11:10:28 51°43.173 2°40.205 -999 -999 -999  
2001-08-13 11:11:28 51°43.174 2°40.216 -999 -999 -999  
2001-08-13 11:12:30 51°43.186 2°40.234 -999 -999 -999  
2001-08-13 11:13:30 51°43.199 2°40.248 -999 -999 -999  
2001-08-13 11:14:28 51°43.2 2°40.273 -999 -999 -999  
2001-08-13 11:15:28 51°43.2 2°40.297 -999 -999 -999  
2001-08-13 11:16:30 51°43.205 2°40.317 -999 -999 -999  
2001-08-13 11:17:30 51°43.212 2°40.336 -999 -999 -999  
2001-08-13 11:18:28 51°43.186 2°40.407 -999 -999 -999  
2001-08-13 11:19:28 51°43.073 2°40.644 -999 -999 -999  
2001-08-13 11:20:30 51°42.928 2°40.892 -999 -999 -999  
2001-08-13 11:21:30 51°42.8 2°41.156 -999 -999 -999  
2001-08-13 11:22:30 51°42.678 2°41.316 -999 -999 -999  
2001-08-13 11:23:30 51°42.629 2°41.339 -999 -999 -999  
2001-08-13 11:24:30 51°42.617 2°41.348 -999 -999 -999  
2001-08-13 11:25:30 51°42.621 2°41.366 -999 -999 -999  
2001-08-13 11:26:30 51°42.631 2°41.382 -999 -999 -999  
2001-08-13 11:27:30 51°42.623 2°41.434 -999 -999 -999  
2001-08-13 11:28:30 51°42.509 2°41.56 -999 -999 -999  
2001-08-13 11:29:29 51°42.318 2°41.499 -999 -999 -999  
2001-08-13 11:30:29 51°42.114 2°41.505 -999 -999 -999  
2001-08-13 11:31:30 51°41.904 2°41.436 -999 -999 -999  
2001-08-13 11:32:30 51°41.7 2°41.347 -999 -999 -999  
2001-08-13 11:33:28 51°41.503 2°41.268 -999 -999 -999  
2001-08-13 11:34:30 51°41.298 2°41.157 -999 -999 -999  
2001-08-13 11:35:30 51°41.092 2°41.089 -999 -999 -999  
2001-08-13 11:36:30 51°40.885 2°41.017 -999 -999 -999  
2001-08-13 11:37:28 51°40.726 2°40.971 -999 -999 -999  
2001-08-13 11:38:30 51°40.68 2°40.922 -999 -999 -999  
2001-08-13 11:39:28 51°40.681 2°40.912 -999 -999 -999  
2001-08-13 11:40:30 51°40.691 2°40.92 -999 -999 -999  
2001-08-13 11:41:30 51°40.7 2°40.929 -999 -999 -999  
2001-08-13 11:42:30 51°40.712 2°40.925 -999 -999 -999  
2001-08-13 11:43:30 51°40.772 2°40.789 -999 -999 -999  
2001-08-13 11:44:30 51°40.864 2°40.542 -999 -999 -999  
2001-08-13 11:45:30 51°40.992 2°40.281 -999 -999 -999  
2001-08-13 11:46:28 51°41.126 2°40.013 -999 -999 -999  
2001-08-13 11:47:30 51°41.244 2°39.724 -999 -999 -999  
2001-08-13 11:48:30 51°41.277 2°39.565 -999 -999 -999  
2001-08-13 11:49:30 51°41.289 2°39.563 -999 -999 -999  
2001-08-13 11:50:30 51°41.294 2°39.586 -999 -999 -999  
2001-08-13 11:51:28 51°41.296 2°39.603 -999 -999 -999  
2001-08-13 11:52:30 51°41.302 2°39.615 -999 -999 -999  
2001-08-13 11:53:30 51°41.317 2°39.615 -999 -999 -999  
2001-08-13 11:54:30 51°41.391 2°39.434 -999 -999 -999  
2001-08-13 11:55:30 51°41.508 2°39.147 -999 -999 -999  
2001-08-13 11:56:30 51°41.637 2°38.859 -999 -999 -999  
2001-08-13 11:57:30 51°41.763 2°38.571 -999 -999 -999  
2001-08-13 11:58:30 51°41.858 2°38.361 -999 -999 -999  
2001-08-13 11:59:30 51°41.873 2°38.311 -999 -999 -999  
2001-08-13 12:00:30 51°41.884 2°38.308 -999 -999 -999  
2001-08-13 12:01:30 51°41.893 2°38.311 -999 -999 -999  
2001-08-13 12:02:30 51°41.903 2°38.317 -999 -999 -999  
2001-08-13 12:03:30 51°41.925 2°38.227 -999 -999 -999  
2001-08-13 12:04:30 51°41.839 2°38.127 -999 -999 -999  
2001-08-13 12:05:28 51°41.704 2°38.105 -999 -999 -999  
2001-08-13 12:06:30 51°41.55 2°38.067 -999 -999 -999  
2001-08-13 12:07:30 51°41.402 2°38.007 -999 -999 -999  
2001-08-13 12:08:30 51°41.249 2°37.939 -999 -999 -999  
2001-08-13 12:09:30 51°41.09 2°37.875 -999 -999 -999  
2001-08-13 12:10:28 51°40.94 2°37.802 -999 -999 -999  
2001-08-13 12:11:29 51°40.789 2°37.731 -999 -999 -999  
2001-08-13 12:12:30 51°40.639 2°37.662 -999 -999 -999  
2001-08-13 12:13:28 51°40.49 2°37.606 -999 -999 -999  
2001-08-13 12:14:30 51°40.335 2°37.533 -999 -999 -999  
2001-08-13 12:15:30 51°40.196 2°37.46 -999 -999 -999  
2001-08-13 12:16:30 51°40.117 2°37.423 -999 -999 -999  
2001-08-13 12:17:30 51°40.023 2°37.395 -999 -999 -999  
2001-08-13 12:18:30 51°39.951 2°37.381 -999 -999 -999  
2001-08-13 12:19:30 51°39.942 2°37.39 -999 -999 -999  
2001-08-13 12:20:30 51°39.944 2°37.397 -999 -999 -999  
2001-08-13 12:21:28 51°39.946 2°37.402 -999 -999 -999  
2001-08-13 12:22:29 51°39.948 2°37.409 -999 -999 -999  
2001-08-13 12:23:29 51°39.948 2°37.416 -999 -999 -999  
2001-08-13 12:24:30 51°39.9 2°37.543 -999 -999 -999  
2001-08-13 12:25:29 51°39.799 2°37.755 -999 -999 -999  
2001-08-13 12:26:29 51°39.688 2°37.982 -999 -999 -999  
2001-08-13 12:27:29 51°39.579 2°38.21 -999 -999 -999  
2001-08-13 12:28:29 51°39.486 2°38.388 -999 -999 -999  
2001-08-13 12:29:29 51°39.444 2°38.444 -999 -999 -999  
2001-08-13 12:30:29 51°39.444 2°38.458 -999 -999 -999  
2001-08-13 12:31:29 51°39.447 2°38.466 -999 -999 -999  
2001-08-13 12:32:29 51°39.451 2°38.471 -999 -999 -999  
2001-08-13 12:33:29 51°39.454 2°38.478 -999 -999 -999  
2001-08-13 12:34:29 51°39.44 2°38.526 -999 -999 -999  
2001-08-13 12:35:29 51°39.331 2°38.714 -999 -999 -999  
2001-08-13 12:36:29 51°39.21 2°38.943 -999 -999 -999  
2001-08-13 12:37:29 51°39.074 2°39.16 -999 -999 -999  
2001-08-13 12:38:29 51°38.954 2°39.388 -999 -999 -999  
2001-08-13 12:39:30 51°38.862 2°39.518 -999 -999 -999  
2001-08-13 12:40:30 51°38.817 2°39.555 -999 -999 -999  
2001-08-13 12:41:29 51°38.81 2°39.566 -999 -999 -999  
2001-08-13 12:42:29 51°38.81 2°39.576 -999 -999 -999  
2001-08-13 12:43:30 51°38.81 2°39.583 -999 -999 -999  
2001-08-13 12:44:29 51°38.81 2°39.591 -999 -999 -999  
2001-08-13 12:45:29 51°38.807 2°39.601 -999 -999 -999  
2001-08-13 12:46:29 51°38.804 2°39.612 -999 -999 -999  
2001-08-13 12:47:29 51°38.794 2°39.637 -999 -999 -999  
2001-08-13 12:48:29 51°38.734 2°39.706 -999 -999 -999  
2001-08-13 12:49:29 51°38.545 2°39.718 -999 -999 -999  
2001-08-13 12:50:29 51°38.331 2°39.666 -999 -999 -999  
2001-08-13 12:51:31 51°38.106 2°39.616 -999 -999 -999  
2001-08-13 12:52:29 51°37.895 2°39.565 -999 -999 -999  
2001-08-13 12:53:29 51°37.68 2°39.518 -999 -999 -999  
2001-08-13 12:54:29 51°37.467 2°39.434 -999 -999 -999  
2001-08-13 12:55:29 51°37.25 2°39.38 -999 -999 -999  
2001-08-13 12:56:29 51°37.035 2°39.314 -999 -999 -999  
2001-08-13 12:57:29 51°36.823 2°39.23 -999 -999 -999  
2001-08-13 12:58:29 51°36.614 2°39.141 -999 -999 -999  
2001-08-13 12:59:30 51°36.395 2°39.04 -999 -999 -999  
2001-08-13 13:00:29 51°36.182 2°38.952 -999 -999 -999  
2001-08-13 13:01:29 51°35.968 2°38.849 -999 -999 -999  
2001-08-13 13:02:29 51°35.757 2°38.767 -999 -999 -999  
2001-08-13 13:03:29 51°35.544 2°38.689 -999 -999 -999  
2001-08-13 13:04:29 51°35.334 2°38.605 -999 -999 -999  
2001-08-13 13:05:29 51°35.123 2°38.509 -999 -999 -999  
2001-08-13 13:06:29 51°34.907 2°38.427 -999 -999 -999  
2001-08-13 13:07:29 51°34.694 2°38.358 -999 -999 -999  
2001-08-13 13:08:31 51°34.474 2°38.273 -999 -999 -999  
2001-08-13 13:09:29 51°34.268 2°38.186 -999 -999 -999  
2001-08-13 13:10:29 51°34.079 2°38.112 -999 -999 -999  
2001-08-13 13:11:29 51°33.87 2°38.02 -999 -999 -999  
2001-08-13 13:12:30 51°33.656 2°37.925 -999 -999 -999  
2001-08-13 13:13:29 51°33.452 2°37.83 -999 -999 -999  
2001-08-13 13:14:29 51°33.24 2°37.73 -999 -999 -999  
2001-08-13 13:15:29 51°33.035 2°37.604 -999 -999 -999  
2001-08-13 13:16:29 51°32.829 2°37.482 -999 -999 -999  
2001-08-13 13:17:29 51°32.622 2°37.356 -999 -999 -999  
2001-08-13 13:18:29 51°32.421 2°37.241 -999 -999 -999  
2001-08-13 13:19:29 51°32.214 2°37.121 -999 -999 -999  
2001-08-13 13:20:30 51°32.001 2°36.996 -999 -999 -999  
2001-08-13 13:21:30 51°31.795 2°36.883 -999 -999 -999  
2001-08-13 13:22:29 51°31.595 2°36.765 -999 -999 -999  
2001-08-13 13:23:31 51°31.377 2°36.661 -999 -999 -999  
2001-08-13 13:24:29 51°31.177 2°36.586 -999 -999 -999  
2001-08-13 13:25:29 51°30.966 2°36.497 -999 -999 -999  
2001-08-13 13:26:31 51°30.744 2°36.406 -999 -999 -999  
2001-08-13 13:27:29 51°30.534 2°36.364 -999 -999 -999  
2001-08-13 13:28:31 51°30.309 2°36.37 -999 -999 -999  
2001-08-13 13:29:29 51°30.097 2°36.37 -999 -999 -999  
2001-08-13 13:30:29 51°29.876 2°36.399 -999 -999 -999  
2001-08-13 13:31:29 51°29.656 2°36.45 -999 -999 -999  
2001-08-13 13:32:29 51°29.436 2°36.484 -999 -999 -999  
2001-08-13 13:33:30 51°29.213 2°36.513 -999 -999 -999  
2001-08-13 13:34:29 51°28.995 2°36.535 -999 -999 -999  
2001-08-13 13:35:29 51°28.772 2°36.554 -999 -999 -999  
2001-08-13 13:36:29 51°28.551 2°36.597 -999 -999 -999  
2001-08-13 13:37:29 51°28.329 2°36.657 -999 -999 -999  
2001-08-13 13:38:31 51°28.104 2°36.743 -999 -999 -999  
2001-08-13 13:39:29 51°27.892 2°36.806 -999 -999 -999  
2001-08-13 13:40:29 51°27.676 2°36.903 -999 -999 -999  
2001-08-13 13:41:29 51°27.474 2°37.052 -999 -999 -999  
2001-08-13 13:42:29 51°27.275 2°37.214 -999 -999 -999  
2001-08-13 13:43:29 51°27.083 2°37.398 -999 -999 -999  
2001-08-13 13:44:29 51°26.892 2°37.587 -999 -999 -999  
2001-08-13 13:45:30 51°26.698 2°37.774 -999 -999 -999  
2001-08-13 13:46:29 51°26.511 2°37.963 -999 -999 -999  
2001-08-13 13:47:29 51°26.325 2°38.156 -999 -999 -999  
2001-08-13 13:48:30 51°26.132 2°38.352 -999 -999 -999  
2001-08-13 13:49:29 51°25.949 2°38.543 -999 -999 -999  
2001-08-13 13:50:29 51°25.766 2°38.744 -999 -999 -999  
2001-08-13 13:51:29 51°25.582 2°38.943 -999 -999 -999  
2001-08-13 13:52:29 51°25.39 2°39.129 -999 -999 -999  
2001-08-13 13:53:30 51°25.191 2°39.302 -999 -999 -999  
2001-08-13 13:54:29 51°24.995 2°39.463 -999 -999 -999  
2001-08-13 13:55:30 51°24.831 2°39.711 -999 -999 -999  
2001-08-13 13:56:29 51°24.671 2°39.951 -999 -999 -999  
2001-08-13 13:57:29 51°24.519 2°40.209 -999 -999 -999  
2001-08-13 13:58:29 51°24.35 2°40.44 -999 -999 -999  
2001-08-13 13:59:29 51°24.171 2°40.652 -999 -999 -999  
2001-08-13 14:00:30 51°23.984 2°40.855 -999 -999 -999  
2001-08-13 14:01:29 51°23.832 2°41.104 -999 -999 -999  
2001-08-13 14:02:29 51°23.682 2°41.364 -999 -999 -999  
2001-08-13 14:03:29 51°23.532 2°41.62 -999 -999 -999  
2001-08-13 14:04:29 51°23.382 2°41.872 -999 -999 -999  
2001-08-13 14:05:29 51°23.207 2°42.082 -999 -999 -999  
2001-08-13 14:06:31 51°23.046 2°42.331 -999 -999 -999  
2001-08-13 14:07:29 51°22.878 2°42.532 -999 -999 -999  
2001-08-13 14:08:29 51°22.697 2°42.731 -999 -999 -999  
2001-08-13 14:09:31 51°22.517 2°42.955 -999 -999 -999  
2001-08-13 14:10:29 51°22.35 2°43.167 -999 -999 -999  
2001-08-13 14:11:29 51°22.169 2°43.371 -999 -999 -999  
2001-08-13 14:12:29 51°21.985 2°43.566 -999 -999 -999  
2001-08-13 14:13:31 51°21.791 2°43.766 -999 -999 -999  
2001-08-13 14:14:29 51°21.612 2°43.956 -999 -999 -999  
2001-08-13 14:15:29 51°21.453 2°44.199 -999 -999 -999  
2001-08-13 14:16:29 51°21.246 2°44.321 -999 -999 -999  
2001-08-13 14:17:29 51°21.029 2°44.409 -999 -999 -999  
2001-08-13 14:18:29 51°20.835 2°44.573 -999 -999 -999  
2001-08-13 14:19:29 51°20.682 2°44.819 -999 -999 -999  
2001-08-13 14:20:29 51°20.566 2°45.106 -999 -999 -999  
2001-08-13 14:21:31 51°20.432 2°45.392 -999 -999 -999  
2001-08-13 14:22:29 51°20.302 2°45.659 -999 -999 -999  
2001-08-13 14:23:29 51°20.171 2°45.935 -999 -999 -999  
2001-08-13 14:24:31 51°20.044 2°46.23 -999 -999 -999  
2001-08-13 14:25:29 51°19.92 2°46.506 -999 -999 -999  
2001-08-13 14:26:29 51°19.809 2°46.805 -999 -999 -999  
2001-08-13 14:27:29 51°19.689 2°47.098 -999 -999 -999  
2001-08-13 14:28:29 51°19.568 2°47.389 -999 -999 -999  
2001-08-13 14:29:29 51°19.443 2°47.673 -999 -999 -999  
2001-08-13 14:30:29 51°19.323 2°47.963 -999 -999 -999  
2001-08-13 14:31:29 51°19.206 2°48.255 -999 -999 -999  
2001-08-13 14:32:30 51°19.083 2°48.552 -999 -999 -999  
2001-08-13 14:33:29 51°18.972 2°48.849 -999 -999 -999  
2001-08-13 14:34:31 51°18.87 2°49.174 -999 -999 -999  
2001-08-13 14:35:31 51°18.761 2°49.479 -999 -999 -999  
2001-08-13 14:36:29 51°18.647 2°49.765 -999 -999 -999  
2001-08-13 14:37:29 51°18.526 2°50.062 -999 -999 -999  
2001-08-13 14:38:31 51°18.406 2°50.371 -999 -999 -999  
2001-08-13 14:39:31 51°18.267 2°50.646 -999 -999 -999  
2001-08-13 14:40:31 51°18.126 2°50.919 -999 -999 -999  
2001-08-13 14:41:29 51°17.993 2°51.184 -999 -999 -999  
2001-08-13 14:42:30 51°17.845 2°51.46 -999 -999 -999  
2001-08-13 14:43:29 51°17.699 2°51.722 -999 -999 -999  
2001-08-13 14:44:31 51°17.536 2°51.988 -999 -999 -999  
2001-08-13 14:45:31 51°17.358 2°52.212 -999 -999 -999  
2001-08-13 14:46:31 51°17.165 2°52.405 -999 -999 -999  
2001-08-13 14:47:31 51°16.968 2°52.583 -999 -999 -999  
2001-08-13 14:48:31 51°16.781 2°52.784 -999 -999 -999  
2001-08-13 14:49:31 51°16.59 2°52.975 -999 -999 -999  
2001-08-13 14:50:29 51°16.403 2°53.154 -999 -999 -999  
2001-08-13 14:51:29 51°16.213 2°53.346 -999 -999 -999  
2001-08-13 14:52:29 51°16.017 2°53.517 -999 -999 -999  
2001-08-13 14:53:31 51°15.822 2°53.712 -999 -999 -999  
2001-08-13 14:54:29 51°15.633 2°53.883 -999 -999 -999  
2001-08-13 14:55:29 51°15.441 2°54.06 -999 -999 -999  
2001-08-13 14:56:31 51°15.238 2°54.233 -999 -999 -999  
2001-08-13 14:57:31 51°15.042 2°54.401 -999 -999 -999  
2001-08-13 14:58:31 51°14.844 2°54.569 -999 -999 -999  
2001-08-13 14:59:29 51°14.653 2°54.728 -999 -999 -999  
2001-08-13 15:00:31 51°14.459 2°54.916 -999 -999 -999  
2001-08-13 15:01:29 51°14.323 2°55.152 -999 -999 -999  
2001-08-13 15:02:29 51°14.188 2°55.362 -999 -999 -999  
2001-08-13 15:03:29 51°14.057 2°55.464 -999 -999 -999  
2001-08-13 15:04:29 51°13.956 2°55.534 -999 -999 -999  
2001-08-13 15:05:29 51°13.876 2°55.591 -999 -999 -999  
2001-08-13 15:06:29 51°13.813 2°55.637 -999 -999 -999  
2001-08-13 15:07:29 51°13.764 2°55.69 -999 -999 -999  
2001-08-13 15:08:29 51°13.729 2°55.752 -999 -999 -999  
2001-08-13 15:09:29 51°13.706 2°55.818 -999 -999 -999  
2001-08-13 15:10:31 51°13.69 2°55.886 -999 -999 -999  
2001-08-13 15:11:29 51°13.678 2°55.92 -999 -999 -999  
2001-08-13 15:12:29 51°13.677 2°55.925 -999 -999 -999  
2001-08-13 15:13:31 51°13.677 2°55.924 -999 -999 -999